Waterloo, Wisconsin
Current Conditions -  °F | °C
As of 4:15 PM on Monday 20 Oct 2014 (Local Time) from KRYV Reporting Station
Overcast Overcast  
Wind Chill: 53°   Ceiling: 5000
Heat Index: 53°   Visibility: 10mi
Dew Point: 42°   Wind: 12mph
Humidity: 65%   Direction: 360°N
Pressure: 29.93"   Gusts: 16mph
Location:  43.18°N, 88.99°W
Report Text: KRYV 202115Z AUTO 36010G14KT 10SM OVC050 12/06 A2993 RMK AO2 T01190055
Loading
Personal Weather Stations






























Interactive Weather Map
Tropical Storm Tracking
New forecast layout! Learn more

10-Day Weather Forecast

Advertisements
Track Severe Weather on mobile